Time;durP1;ratioP1;P1;durP2;ratioP2;P2;SDS_P1;SDS_P2;PMS_P1;PMS_P2;Temp;Humidity;BMP_temperature;BMP_pressure;BME280_temperature;BME280_humidity;BME280_pressure;Samples;Min_cycle;Max_cycle;Signal;HPM_P1;HPM_P2
2021/11/10 00:01:41;;;;;;;29.05;12.02;;;;;;;;;;5050618;28;20048;-87
2021/11/10 00:04:07;;;;;;;33.10;11.68;;;;;;;;;;5047865;28;20503;-83
2021/11/10 00:06:33;;;;;;;31.13;11.75;;;;;;;;;;5034268;28;20530;-86
2021/11/10 00:09:00;;;;;;;31.20;11.63;;;;;;;;;;5032245;28;20053;-85
2021/11/10 00:11:26;;;;;;;41.20;12.88;;;;;;;;;;5051518;28;20057;-85
2021/11/10 00:13:53;;;;;;;34.50;11.07;;;;;;;;;;5051749;28;20052;-85
2021/11/10 00:16:19;;;;;;;30.65;11.80;;;;;;;;;;5049992;28;20052;-85
2021/11/10 00:18:46;;;;;;;34.83;11.90;;;;;;;;;;5051592;28;20415;-82
2021/11/10 00:21:12;;;;;;;33.10;11.38;;;;;;;;;;5035094;28;20110;-85
2021/11/10 00:23:38;;;;;;;32.25;12.70;;;;;;;;;;5034916;28;20053;-83
2021/11/10 00:26:04;;;;;;;31.98;10.95;;;;;;;;;;5049708;28;20395;-84
2021/11/10 00:28:30;;;;;;;35.45;11.60;;;;;;;;;;5048832;28;20073;-84
2021/11/10 00:30:57;;;;;;;33.58;11.07;;;;;;;;;;5051452;28;20045;-86
2021/11/10 00:33:24;;;;;;;27.10;10.38;;;;;;;;;;5051571;28;20049;-83
2021/11/10 00:35:50;;;;;;;34.35;11.18;;;;;;;;;;5032553;28;20075;-82
2021/11/10 00:38:16;;;;;;;38.88;11.70;;;;;;;;;;5035367;28;20051;-86
2021/11/10 00:40:42;;;;;;;35.25;11.45;;;;;;;;;;5052091;28;20045;-85
2021/11/10 00:43:08;;;;;;;28.85;11.90;;;;;;;;;;5034025;28;20045;-83
2021/11/10 00:45:34;;;;;;;28.92;11.48;;;;;;;;;;5051558;28;20132;-85
2021/11/10 00:48:00;;;;;;;28.75;11.07;;;;;;;;;;5032962;28;20084;-84
2021/11/10 00:50:26;;;;;;;30.30;11.90;;;;;;;;;;5051735;28;20048;-84
2021/11/10 00:52:52;;;;;;;30.08;12.40;;;;;;;;;;5050707;28;20466;-78
2021/11/10 00:55:18;;;;;;;31.55;12.52;;;;;;;;;;5051262;28;20049;-83
2021/11/10 00:57:44;;;;;;;38.38;12.95;;;;;;;;;;5050317;28;20051;-83
2021/11/10 01:00:11;;;;;;;37.70;14.13;;;;;;;;;;5018015;28;20045;-84
2021/11/10 01:02:37;;;;;;;33.72;13.82;;;;;;;;;;5050500;28;20128;-84
2021/11/10 01:05:04;;;;;;;36.25;13.70;;;;;;;;;;5034579;28;20045;-84
2021/11/10 01:07:30;;;;;;;40.78;15.35;;;;;;;;;;5050054;28;20056;-85
2021/11/10 01:10:02;;;;;;;39.40;16.08;;;;;;;;;;5049570;28;20487;-86
2021/11/10 01:12:28;;;;;;;41.78;15.50;;;;;;;;;;5048894;28;20041;-86
2021/11/10 01:14:54;;;;;;;41.95;15.75;;;;;;;;;;5050482;28;20400;-79
2021/11/10 01:17:20;;;;;;;46.90;16.88;;;;;;;;;;5050616;28;20384;-85
2021/11/10 01:19:46;;;;;;;43.33;15.75;;;;;;;;;;5032341;28;20197;-84
2021/11/10 01:22:12;;;;;;;42.60;17.08;;;;;;;;;;5033721;28;20048;-85
2021/11/10 01:24:39;;;;;;;39.20;17.02;;;;;;;;;;5050677;28;20048;-84
2021/11/10 01:27:05;;;;;;;41.95;17.90;;;;;;;;;;5033066;28;20075;-85
2021/11/10 01:29:31;;;;;;;44.92;19.67;;;;;;;;;;5033994;28;20057;-86
2021/11/10 01:31:57;;;;;;;51.50;20.20;;;;;;;;;;5050182;28;20048;-82
2021/11/10 01:34:24;;;;;;;49.60;19.10;;;;;;;;;;5049012;28;20103;-86
2021/11/10 01:36:50;;;;;;;51.83;20.83;;;;;;;;;;5048389;28;20045;-85
2021/11/10 01:39:16;;;;;;;45.67;21.17;;;;;;;;;;5032344;28;20049;-85
2021/11/10 01:41:47;;;;;;;57.83;21.88;;;;;;;;;;5032153;28;20099;-84
2021/11/10 01:44:17;;;;;;;55.05;22.55;;;;;;;;;;5047787;28;20049;-86
2021/11/10 01:46:43;;;;;;;56.63;21.98;;;;;;;;;;5048172;28;20044;-85
2021/11/10 01:49:09;;;;;;;47.08;21.20;;;;;;;;;;5049906;28;20067;-87
2021/11/10 01:51:35;;;;;;;46.65;22.83;;;;;;;;;;5033656;28;20072;-86
2021/11/10 01:54:01;;;;;;;53.72;23.67;;;;;;;;;;5045043;28;20453;-84
2021/11/10 01:56:27;;;;;;;52.00;22.75;;;;;;;;;;5049776;28;20072;-86
2021/11/10 01:58:54;;;;;;;51.20;22.02;;;;;;;;;;5049884;28;20048;-86
2021/11/10 02:01:21;;;;;;;56.85;23.45;;;;;;;;;;5032893;28;20049;-87
2021/11/10 02:03:47;;;;;;;55.63;24.35;;;;;;;;;;5048792;28;20068;-84
2021/11/10 02:06:13;;;;;;;58.08;24.40;;;;;;;;;;5032688;28;20049;-88
2021/11/10 02:08:39;;;;;;;61.90;27.35;;;;;;;;;;5033319;28;20052;-86
2021/11/10 02:11:06;;;;;;;53.20;24.20;;;;;;;;;;5047977;28;20045;-87
2021/11/10 02:13:32;;;;;;;58.00;25.08;;;;;;;;;;5033534;28;20067;-87
2021/11/10 02:16:00;;;;;;;50.22;25.08;;;;;;;;;;5031582;28;20049;-84
2021/11/10 02:18:26;;;;;;;58.00;25.27;;;;;;;;;;5032874;28;20049;-86
2021/11/10 02:20:52;;;;;;;56.55;24.60;;;;;;;;;;5044000;28;20049;-82
2021/11/10 02:23:19;;;;;;;55.00;24.55;;;;;;;;;;5045820;28;20102;-83
2021/11/10 02:25:45;;;;;;;63.72;27.20;;;;;;;;;;5049141;28;20434;-84
2021/11/10 02:28:11;;;;;;;58.45;25.33;;;;;;;;;;5048258;28;20538;-84
2021/11/10 02:30:37;;;;;;;55.22;24.75;;;;;;;;;;5033404;28;20495;-86
2021/11/10 02:33:04;;;;;;;62.85;27.30;;;;;;;;;;5048057;28;20106;-83
2021/11/10 02:35:31;;;;;;;54.65;26.33;;;;;;;;;;5028771;28;20109;-85
2021/11/10 02:38:06;;;;;;;59.72;25.63;;;;;;;;;;5048260;28;20040;-85
2021/11/10 02:40:32;;;;;;;50.78;25.25;;;;;;;;;;5044972;28;20049;-86
2021/11/10 02:42:59;;;;;;;65.22;29.23;;;;;;;;;;5032564;28;20080;-84
2021/11/10 02:45:26;;;;;;;62.35;27.40;;;;;;;;;;5047715;28;20049;-85
2021/11/10 02:47:52;;;;;;;62.53;28.52;;;;;;;;;;5049671;28;20049;-84
2021/11/10 02:50:18;;;;;;;54.33;27.13;;;;;;;;;;5044591;28;20048;-83
2021/11/10 02:52:44;;;;;;;67.63;28.98;;;;;;;;;;5048430;28;20041;-84
2021/11/10 02:55:11;;;;;;;68.53;29.90;;;;;;;;;;5048746;28;20131;-85
2021/11/10 02:57:37;;;;;;;67.07;28.33;;;;;;;;;;5048631;28;20045;-85
2021/11/10 03:00:07;;;;;;;65.03;28.92;;;;;;;;;;5048588;28;20044;-85
2021/11/10 03:02:33;;;;;;;55.10;27.90;;;;;;;;;;5048300;28;20056;-85
2021/11/10 03:05:00;;;;;;;61.83;29.75;;;;;;;;;;5046512;28;20483;-85
2021/11/10 03:07:26;;;;;;;63.42;28.25;;;;;;;;;;5048022;28;20041;-86
2021/11/10 03:09:52;;;;;;;64.03;30.23;;;;;;;;;;5046561;28;20045;-81
2021/11/10 03:12:19;;;;;;;54.08;27.92;;;;;;;;;;5048867;28;20080;-86
2021/11/10 03:14:46;;;;;;;63.75;28.92;;;;;;;;;;5031499;28;20190;-86
2021/11/10 03:17:13;;;;;;;62.38;27.63;;;;;;;;;;5032188;28;20049;-85
2021/11/10 03:19:39;;;;;;;64.93;31.38;;;;;;;;;;5047598;28;20052;-84
2021/11/10 03:22:07;;;;;;;70.20;31.35;;;;;;;;;;5047805;28;20135;-85
2021/11/10 03:24:33;;;;;;;76.95;31.17;;;;;;;;;;5048264;28;20538;-85
2021/11/10 03:26:59;;;;;;;63.50;29.35;;;;;;;;;;5048400;28;20119;-84
2021/11/10 03:29:25;;;;;;;57.38;27.65;;;;;;;;;;5047995;28;20045;-85
2021/11/10 03:31:51;;;;;;;70.45;31.13;;;;;;;;;;5048667;28;20403;-86
2021/11/10 03:34:20;;;;;;;70.35;31.88;;;;;;;;;;5032212;28;20827;-82
2021/11/10 03:36:47;;;;;;;73.47;31.80;;;;;;;;;;5047935;28;20056;-85
2021/11/10 03:39:14;;;;;;;71.30;32.58;;;;;;;;;;5047680;28;20040;-85
2021/11/10 03:41:40;;;;;;;72.93;30.98;;;;;;;;;;5031116;28;20037;-83
2021/11/10 03:44:06;;;;;;;68.85;32.65;;;;;;;;;;5031328;28;20480;-84
2021/11/10 03:46:32;;;;;;;64.35;31.40;;;;;;;;;;5040483;28;20045;-83
2021/11/10 03:48:58;;;;;;;66.72;31.67;;;;;;;;;;5043689;28;20044;-82
2021/11/10 03:51:27;;;;;;;79.53;32.45;;;;;;;;;;5047776;28;20049;-85
2021/11/10 03:53:53;;;;;;;69.03;32.40;;;;;;;;;;5044722;28;20099;-83
2021/11/10 03:56:19;;;;;;;72.45;32.45;;;;;;;;;;5029602;28;20037;-84
2021/11/10 03:58:45;;;;;;;66.15;29.30;;;;;;;;;;5032096;28;20048;-84
2021/11/10 04:01:13;;;;;;;72.25;32.25;;;;;;;;;;5031880;28;20498;-84
2021/11/10 04:03:40;;;;;;;68.50;33.50;;;;;;;;;;5044588;28;20080;-83
2021/11/10 04:06:06;;;;;;;74.05;31.10;;;;;;;;;;5048046;28;20044;-85
2021/11/10 04:08:32;;;;;;;70.85;31.98;;;;;;;;;;5046465;28;20045;-85
2021/11/10 04:11:01;;;;;;;66.35;29.95;;;;;;;;;;5047662;28;20139;-83
2021/11/10 04:13:31;;;;;;;62.13;31.00;;;;;;;;;;5048095;28;20473;-85
2021/11/10 04:15:57;;;;;;;69.35;30.48;;;;;;;;;;5046629;28;20427;-83
2021/11/10 04:18:23;;;;;;;71.35;31.33;;;;;;;;;;5046473;28;20045;-84
2021/11/10 04:20:50;;;;;;;51.80;30.35;;;;;;;;;;5030444;28;20053;-83
2021/11/10 04:23:16;;;;;;;61.30;31.38;;;;;;;;;;5048193;28;20072;-82
2021/11/10 04:25:45;;;;;;;58.67;31.75;;;;;;;;;;5035471;28;20041;-83
2021/11/10 04:28:12;;;;;;;56.70;31.08;;;;;;;;;;5033317;28;20049;-81
2021/11/10 04:30:38;;;;;;;67.75;33.15;;;;;;;;;;5051024;28;20392;-83
2021/11/10 04:33:04;;;;;;;64.30;29.90;;;;;;;;;;5049615;28;20085;-84
2021/11/10 04:35:30;;;;;;;59.17;31.58;;;;;;;;;;5032981;28;20045;-84
2021/11/10 04:37:56;;;;;;;60.92;30.38;;;;;;;;;;5029456;28;20053;-84
2021/11/10 04:40:22;;;;;;;57.72;30.98;;;;;;;;;;5031350;28;20033;-85
2021/11/10 04:42:48;;;;;;;61.92;29.65;;;;;;;;;;5035156;28;20055;-84
2021/11/10 04:45:24;;;;;;;57.03;30.83;;;;;;;;;;5034157;28;20108;-85
2021/11/10 04:47:50;;;;;;;63.13;30.85;;;;;;;;;;5048404;28;20055;-84
2021/11/10 04:50:16;;;;;;;51.75;28.83;;;;;;;;;;5016485;28;20057;-85
2021/11/10 04:52:42;;;;;;;56.38;27.77;;;;;;;;;;5034175;28;20664;-83
2021/11/10 04:55:09;;;;;;;57.67;28.23;;;;;;;;;;5048370;28;20160;-84
2021/11/10 04:57:35;;;;;;;49.50;26.83;;;;;;;;;;5034126;28;20053;-84
2021/11/10 05:00:01;;;;;;;51.05;28.00;;;;;;;;;;5032140;28;20152;-82
2021/11/10 05:02:27;;;;;;;48.60;25.70;;;;;;;;;;5049004;28;20124;-84
2021/11/10 05:04:54;;;;;;;53.25;26.95;;;;;;;;;;5051433;28;20044;-84
2021/11/10 05:07:20;;;;;;;49.80;23.80;;;;;;;;;;5034368;28;20040;-85
2021/11/10 05:09:48;;;;;;;48.72;25.48;;;;;;;;;;5048283;28;20387;-84
2021/11/10 05:12:14;;;;;;;49.10;24.15;;;;;;;;;;5049895;28;20132;-84
2021/11/10 05:14:41;;;;;;;44.80;22.30;;;;;;;;;;5048323;28;20049;-82
2021/11/10 05:17:07;;;;;;;40.33;20.90;;;;;;;;;;5031516;28;20045;-84
2021/11/10 05:19:33;;;;;;;38.70;21.40;;;;;;;;;;5034248;28;20056;-85
2021/11/10 05:21:59;;;;;;;43.90;20.20;;;;;;;;;;5051774;28;20124;-86
2021/11/10 05:24:26;;;;;;;45.72;22.38;;;;;;;;;;5049737;28;20037;-86
2021/11/10 05:26:52;;;;;;;43.20;21.40;;;;;;;;;;5042144;28;20049;-85
2021/11/10 05:29:18;;;;;;;37.85;19.98;;;;;;;;;;5049977;28;20143;-89
2021/11/10 05:31:44;;;;;;;42.20;20.27;;;;;;;;;;5050291;28;20052;-90
2021/11/10 05:34:11;;;;;;;42.20;20.67;;;;;;;;;;5034961;28;20049;-90
2021/11/10 05:36:37;;;;;;;43.17;19.52;;;;;;;;;;5049586;28;20044;-90
2021/11/10 05:39:04;;;;;;;40.63;19.75;;;;;;;;;;5034037;28;20049;-86
2021/11/10 05:41:30;;;;;;;46.00;20.63;;;;;;;;;;5048505;28;20510;-81
2021/11/10 05:43:56;;;;;;;49.53;20.42;;;;;;;;;;5050135;28;20454;-91
2021/11/10 05:46:22;;;;;;;37.80;19.52;;;;;;;;;;5049543;28;20069;-88
2021/11/10 05:48:48;;;;;;;39.50;19.52;;;;;;;;;;5048346;28;20121;-88
2021/11/10 05:51:14;;;;;;;35.22;18.42;;;;;;;;;;5049095;28;20090;-90
2021/11/10 05:53:44;;;;;;;37.78;18.52;;;;;;;;;;5031629;28;20472;-84
2021/11/10 05:56:17;;;;;;;42.40;19.15;;;;;;;;;;5050258;28;20045;-87
2021/11/10 05:58:43;;;;;;;;;;;;;;;;;;5050832;28;20060;-87
2021/11/10 06:01:10;;;;;;;37.13;18.77;;;;;;;;;;5049771;28;19920;-86
2021/11/10 06:03:36;;;;;;;35.63;18.75;;;;;;;;;;5049019;28;20048;-85
2021/11/10 06:06:02;;;;;;;39.03;17.02;;;;;;;;;;5049769;28;20191;-83
2021/11/10 06:08:28;;;;;;;34.55;17.85;;;;;;;;;;5044762;28;20507;-83
2021/11/10 06:10:54;;;;;;;37.50;18.25;;;;;;;;;;5037706;28;20041;-85
2021/11/10 06:13:20;;;;;;;42.10;17.00;;;;;;;;;;5032450;28;20118;-86
2021/11/10 06:15:46;;;;;;;34.03;17.58;;;;;;;;;;5038430;28;20095;-85
2021/11/10 06:18:12;;;;;;;34.80;17.85;;;;;;;;;;5031912;28;20053;-86
2021/11/10 06:20:38;;;;;;;35.72;17.50;;;;;;;;;;5032562;28;20323;-85
2021/11/10 06:23:04;;;;;;;30.20;16.88;;;;;;;;;;5032004;28;20135;-86
2021/11/10 06:25:31;;;;;;;43.30;18.05;;;;;;;;;;5042009;28;20124;-86
2021/11/10 06:27:57;;;;;;;35.42;18.02;;;;;;;;;;5048380;28;20037;-85
2021/11/10 06:30:23;;;;;;;35.55;16.80;;;;;;;;;;5041652;28;20050;-85
2021/11/10 06:32:50;;;;;;;35.45;18.83;;;;;;;;;;5031256;28;20124;-82
2021/11/10 06:35:16;;;;;;;36.60;17.60;;;;;;;;;;5048917;28;20045;-85
2021/11/10 06:37:42;;;;;;;32.95;16.67;;;;;;;;;;5036180;28;20103;-84
2021/11/10 06:40:10;;;;;;;40.13;18.30;;;;;;;;;;5039735;28;20055;-90
2021/11/10 06:42:36;;;;;;;36.90;18.80;;;;;;;;;;5047955;28;20119;-85
2021/11/10 06:45:03;;;;;;;30.75;18.75;;;;;;;;;;5013884;28;20529;-78
2021/11/10 06:47:29;;;;;;;33.63;18.52;;;;;;;;;;5021892;28;20077;-84
2021/11/10 06:49:55;;;;;;;31.45;18.88;;;;;;;;;;5015034;28;20049;-84
2021/11/10 06:52:21;;;;;;;31.45;19.27;;;;;;;;;;5031129;28;20050;-83
2021/11/10 06:54:50;;;;;;;35.05;19.10;;;;;;;;;;5038484;28;20038;-84
2021/11/10 06:57:16;;;;;;;33.67;19.55;;;;;;;;;;5041890;28;20391;-85
2021/11/10 06:59:42;;;;;;;36.22;19.58;;;;;;;;;;5015152;28;20056;-85
2021/11/10 07:02:09;;;;;;;31.92;19.67;;;;;;;;;;5015530;28;20049;-85
2021/11/10 07:04:35;;;;;;;39.63;21.02;;;;;;;;;;5030984;28;20124;-84
2021/11/10 07:07:01;;;;;;;40.47;20.50;;;;;;;;;;5021118;28;20063;-84
2021/11/10 07:09:27;;;;;;;35.60;20.55;;;;;;;;;;5046201;28;20499;-84
2021/11/10 07:11:53;;;;;;;37.55;20.88;;;;;;;;;;5031331;28;20048;-83
2021/11/10 07:14:19;;;;;;;37.72;21.98;;;;;;;;;;5015134;28;20119;-83
2021/11/10 07:16:45;;;;;;;34.65;20.60;;;;;;;;;;5030835;28;20042;-84
2021/11/10 07:19:11;;;;;;;38.28;22.50;;;;;;;;;;5033039;28;20052;-84
2021/11/10 07:21:37;;;;;;;34.90;20.10;;;;;;;;;;5030927;28;20072;-85
2021/11/10 07:24:04;;;;;;;45.83;22.30;;;;;;;;;;5015095;28;20103;-84
2021/11/10 07:26:30;;;;;;;34.70;21.88;;;;;;;;;;5030275;28;20567;-83
2021/11/10 07:28:56;;;;;;;34.67;20.55;;;;;;;;;;5016445;28;20049;-82
2021/11/10 07:31:22;;;;;;;35.97;21.98;;;;;;;;;;4998741;28;20060;-84
2021/11/10 07:33:48;;;;;;;39.03;22.52;;;;;;;;;;5032640;28;20415;-84
2021/11/10 07:36:15;;;;;;;32.60;20.92;;;;;;;;;;5032595;28;20052;-85
2021/11/10 07:38:41;;;;;;;38.50;21.58;;;;;;;;;;5033881;28;20068;-84
2021/11/10 07:41:10;;;;;;;36.28;21.25;;;;;;;;;;5032507;28;20041;-85
2021/11/10 07:43:36;;;;;;;37.78;20.13;;;;;;;;;;5036844;28;20079;-85
2021/11/10 07:46:15;;;;;;;36.58;21.17;;;;;;;;;;5040142;28;20049;-86
2021/11/10 07:48:42;;;;;;;34.85;20.15;;;;;;;;;;5031453;28;20081;-89
2021/11/10 07:51:08;;;;;;;32.38;19.23;;;;;;;;;;5038909;28;20045;-85
2021/11/10 07:53:35;;;;;;;33.92;21.50;;;;;;;;;;5027467;28;20494;-88
2021/11/10 07:56:01;;;;;;;35.60;19.60;;;;;;;;;;5037265;28;20132;-88
2021/11/10 07:58:27;;;;;;;38.83;20.52;;;;;;;;;;5032695;28;20129;-87
2021/11/10 08:00:53;;;;;;;34.90;19.25;;;;;;;;;;5045394;28;20045;-90
2021/11/10 08:03:19;;;;;;;31.75;19.70;;;;;;;;;;5036906;28;20041;-85
2021/11/10 08:05:45;;;;;;;32.75;19.85;;;;;;;;;;5046715;28;20283;-89
2021/11/10 08:08:12;;;;;;;30.30;18.83;;;;;;;;;;5034333;28;20072;-89
2021/11/10 08:10:38;;;;;;;30.73;18.02;;;;;;;;;;5023920;28;20049;-87
2021/11/10 08:13:04;;;;;;;31.45;17.85;;;;;;;;;;5037115;28;20524;-84
2021/11/10 08:15:30;;;;;;;28.23;16.95;;;;;;;;;;5064503;28;20052;-87
2021/11/10 08:17:56;;;;;;;26.52;17.30;;;;;;;;;;5043715;28;20045;-81
2021/11/10 08:20:23;;;;;;;27.23;16.75;;;;;;;;;;5030777;28;20056;-82
2021/11/10 08:22:49;;;;;;;30.30;16.42;;;;;;;;;;5036091;28;20491;-80
2021/11/10 08:25:16;;;;;;;24.90;16.88;;;;;;;;;;5033947;28;20085;-86
2021/11/10 08:27:43;;;;;;;27.63;16.50;;;;;;;;;;5036151;28;20045;-81
2021/11/10 08:30:11;;;;;;;26.27;15.13;;;;;;;;;;5049910;28;20048;-84
2021/11/10 08:32:37;;;;;;;28.60;15.02;;;;;;;;;;5052623;28;20041;-80
2021/11/10 08:35:04;;;;;;;27.02;15.35;;;;;;;;;;5048167;28;20522;-79
2021/11/10 08:37:31;;;;;;;26.10;14.18;;;;;;;;;;5043227;28;20044;-83
2021/11/10 08:39:57;;;;;;;24.77;15.38;;;;;;;;;;5046294;28;20053;-82
2021/11/10 08:42:24;;;;;;;30.40;15.00;;;;;;;;;;5038042;28;20053;-82
2021/11/10 08:44:53;;;;;;;25.77;14.25;;;;;;;;;;5034009;28;20045;-79
2021/11/10 08:47:23;;;;;;;25.42;13.88;;;;;;;;;;5042445;28;20041;-83
2021/11/10 08:49:49;;;;;;;20.92;13.35;;;;;;;;;;5033577;28;20377;-83
2021/11/10 08:52:17;;;;;;;23.80;13.15;;;;;;;;;;5050882;28;20048;-82
2021/11/10 08:54:43;;;;;;;24.40;13.18;;;;;;;;;;5030906;28;20049;-86
2021/11/10 08:57:09;;;;;;;30.83;13.57;;;;;;;;;;5033556;28;20422;-87
2021/11/10 08:59:35;;;;;;;24.38;13.35;;;;;;;;;;5039858;28;20079;-83
2021/11/10 09:02:02;;;;;;;21.15;13.20;;;;;;;;;;5050852;28;20052;-84
2021/11/10 09:04:28;;;;;;;28.88;14.18;;;;;;;;;;5051762;28;20041;-84
2021/11/10 09:06:54;;;;;;;29.65;13.23;;;;;;;;;;5034042;28;20210;-83
2021/11/10 09:09:20;;;;;;;25.10;13.73;;;;;;;;;;5031474;28;20065;-83
2021/11/10 09:11:48;;;;;;;23.08;13.32;;;;;;;;;;5033389;28;20045;-84
2021/11/10 09:14:14;;;;;;;23.75;12.93;;;;;;;;;;5034092;28;20161;-83
2021/11/10 09:16:41;;;;;;;26.13;13.68;;;;;;;;;;5046429;28;20060;-84
2021/11/10 09:19:07;;;;;;;24.48;12.45;;;;;;;;;;5034517;28;20047;-84
2021/11/10 09:21:33;;;;;;;22.55;12.50;;;;;;;;;;5048858;28;20126;-83
2021/11/10 09:24:00;;;;;;;28.17;11.95;;;;;;;;;;5032279;28;20484;-84
2021/11/10 09:26:26;;;;;;;23.00;12.13;;;;;;;;;;5044885;28;20043;-84
2021/11/10 09:28:53;;;;;;;26.67;11.85;;;;;;;;;;5033138;28;20084;-82
2021/11/10 09:31:20;;;;;;;23.73;12.85;;;;;;;;;;5047298;28;20063;-83
2021/11/10 09:33:48;;;;;;;22.00;12.82;;;;;;;;;;5049302;28;20038;-84
2021/11/10 09:36:14;;;;;;;23.15;12.80;;;;;;;;;;5048904;28;20514;-85
2021/11/10 09:38:40;;;;;;;24.80;13.05;;;;;;;;;;5018676;28;20488;-80
2021/11/10 09:41:08;;;;;;;86.28;74.78;;;;;;;;;;5024484;28;20053;-84
2021/11/10 09:43:36;;;;;;;34.15;20.73;;;;;;;;;;5019746;28;20053;-84
2021/11/10 09:46:03;;;;;;;30.33;21.10;;;;;;;;;;5033823;28;20507;-84
2021/11/10 09:48:29;;;;;;;24.23;12.20;;;;;;;;;;5032454;28;20136;-83
2021/11/10 09:50:56;;;;;;;21.33;11.70;;;;;;;;;;5015643;28;20330;-84
2021/11/10 09:53:22;;;;;;;25.17;13.43;;;;;;;;;;5044186;28;20502;-84
2021/11/10 09:55:49;;;;;;;24.15;11.63;;;;;;;;;;5043592;28;20081;-85
2021/11/10 09:58:15;;;;;;;24.65;12.90;;;;;;;;;;5050524;28;20098;-85
2021/11/10 10:01:02;;;;;;;21.30;12.30;;;;;;;;;;5047624;28;20068;-84
2021/11/10 10:03:28;;;;;;;27.60;12.32;;;;;;;;;;5066911;28;20047;-83
2021/11/10 10:05:55;;;;;;;25.38;12.52;;;;;;;;;;5035752;28;20041;-85
2021/11/10 10:08:21;;;;;;;21.65;12.32;;;;;;;;;;5035740;28;20079;-85
2021/11/10 10:10:48;;;;;;;23.73;12.38;;;;;;;;;;5039715;28;20053;-87
2021/11/10 10:13:15;;;;;;;18.25;11.23;;;;;;;;;;5049145;28;20072;-86
2021/11/10 10:15:43;;;;;;;28.05;12.32;;;;;;;;;;5027711;28;20049;-85
2021/11/10 10:18:15;;;;;;;21.50;11.20;;;;;;;;;;5033957;28;20395;-85
2021/11/10 10:20:42;;;;;;;25.25;12.35;;;;;;;;;;5031029;28;20040;-85
2021/11/10 10:23:12;;;;;;;20.83;11.27;;;;;;;;;;5041155;28;20045;-84
2021/11/10 10:25:49;;;;;;;23.05;11.35;;;;;;;;;;5042060;28;20577;-83
2021/11/10 10:28:17;;;;;;;23.25;11.88;;;;;;;;;;5033890;28;20103;-84
2021/11/10 10:30:50;;;;;;;23.30;12.05;;;;;;;;;;5049045;28;20074;-85
2021/11/10 10:33:18;;;;;;;24.90;12.55;;;;;;;;;;5047356;28;20041;-83
2021/11/10 10:35:47;;;;;;;24.63;11.45;;;;;;;;;;5032831;28;20384;-84
2021/11/10 10:38:18;;;;;;;29.58;12.68;;;;;;;;;;5032793;28;20437;-83
2021/11/10 10:40:45;;;;;;;26.48;12.35;;;;;;;;;;5048715;28;20098;-84
2021/11/10 10:43:12;;;;;;;23.42;11.88;;;;;;;;;;5049811;28;20487;-83
2021/11/10 10:45:40;;;;;;;29.15;13.05;;;;;;;;;;5047694;28;20041;-83
2021/11/10 10:48:08;;;;;;;22.30;12.57;;;;;;;;;;5049637;28;20052;-84
2021/11/10 10:50:41;;;;;;;25.20;12.93;;;;;;;;;;5048289;28;20395;-83
2021/11/10 10:53:08;;;;;;;25.80;12.18;;;;;;;;;;5042419;28;20128;-82
2021/11/10 10:55:39;;;;;;;22.13;11.30;;;;;;;;;;5029529;28;20060;-86
2021/11/10 10:58:12;;;;;;;28.17;12.02;;;;;;;;;;5015259;28;20050;-86
2021/11/10 11:00:39;;;;;;;24.33;12.60;;;;;;;;;;5039523;28;20099;-82
2021/11/10 11:03:14;;;;;;;32.60;12.23;;;;;;;;;;5033521;28;20075;-89
2021/11/10 11:05:44;;;;;;;22.27;11.55;;;;;;;;;;5038422;28;20045;-89
2021/11/10 11:08:27;;;;;;;21.80;12.68;;;;;;;;;;5049430;28;20496;-85
2021/11/10 11:10:57;;;;;;;21.88;11.90;;;;;;;;;;5030807;28;20049;-85
2021/11/10 11:13:43;;;;;;;23.45;12.50;;;;;;;;;;5040209;28;20057;-86
2021/11/10 11:16:09;;;;;;;26.25;12.13;;;;;;;;;;5039591;28;20388;-84
2021/11/10 11:18:36;;;;;;;25.33;12.85;;;;;;;;;;5047567;28;20045;-83
2021/11/10 11:21:21;;;;;;;22.88;12.23;;;;;;;;;;5045933;28;20178;-86
2021/11/10 11:23:47;;;;;;;25.95;12.68;;;;;;;;;;5042083;28;20487;-85
2021/11/10 11:26:32;;;;;;;28.80;11.43;;;;;;;;;;5031479;28;20046;-87
2021/11/10 11:29:17;;;;;;;24.20;12.52;;;;;;;;;;5018151;28;20059;-83
2021/11/10 11:31:43;;;;;;;24.50;11.90;;;;;;;;;;5031425;28;20041;-83
2021/11/10 11:34:09;;;;;;;26.95;11.90;;;;;;;;;;5036776;28;20049;-86
2021/11/10 11:36:49;;;;;;;23.90;11.25;;;;;;;;;;5048651;28;20052;-81
2021/11/10 11:39:15;;;;;;;31.90;12.52;;;;;;;;;;5052792;28;20070;-89
2021/11/10 11:41:42;;;;;;;30.27;12.23;;;;;;;;;;5052974;28;20053;-85
2021/11/10 11:44:08;;;;;;;23.13;11.00;;;;;;;;;;5050999;28;20051;-89
2021/11/10 11:46:35;;;;;;;26.35;11.88;;;;;;;;;;5051607;28;20061;-89
2021/11/10 11:49:01;;;;;;;26.92;11.65;;;;;;;;;;5051943;28;20055;-87
2021/11/10 11:51:27;;;;;;;26.52;12.10;;;;;;;;;;5049225;28;20048;-87
2021/11/10 11:53:56;;;;;;;30.33;12.63;;;;;;;;;;5050536;28;20110;-85
2021/11/10 11:56:24;;;;;;;28.80;12.10;;;;;;;;;;5050238;28;20049;-87
2021/11/10 11:58:52;;;;;;;31.50;11.88;;;;;;;;;;5048764;28;20545;-84
2021/11/10 12:01:22;;;;;;;29.05;13.18;;;;;;;;;;5048788;28;20041;-82
2021/11/10 12:03:53;;;;;;;27.65;11.80;;;;;;;;;;5031214;28;20041;-82
2021/11/10 12:06:20;;;;;;;23.15;11.77;;;;;;;;;;5034806;28;20048;-90
2021/11/10 12:08:54;;;;;;;28.67;12.90;;;;;;;;;;5026913;28;20128;-92
2021/11/10 12:11:20;;;;;;;25.63;12.02;;;;;;;;;;5034885;28;20144;-91
2021/11/10 12:14:05;;;;;;;30.63;12.68;;;;;;;;;;5018275;28;20435;-89
2021/11/10 12:16:44;;;;;;;25.38;12.75;;;;;;;;;;5034971;28;20487;-91
2021/11/10 12:19:10;;;;;;;28.55;13.05;;;;;;;;;;5056015;28;20476;-88
2021/11/10 12:21:44;;;;;;;29.52;12.90;;;;;;;;;;5036036;28;20037;-91
2021/11/10 12:24:11;;;;;;;30.75;14.02;;;;;;;;;;5036036;28;20053;-86
2021/11/10 12:27:00;;;;;;;28.20;13.52;;;;;;;;;;5041663;28;20037;-83
2021/11/10 12:29:40;;;;;;;26.40;13.55;;;;;;;;;;5028119;28;20463;-89
2021/11/10 12:32:06;;;;;;;28.92;13.60;;;;;;;;;;5051531;28;20048;-86
2021/11/10 12:34:34;;;;;;;29.90;14.10;;;;;;;;;;5051662;28;20476;-82
2021/11/10 12:37:04;;;;;;;31.33;14.43;;;;;;;;;;5043083;28;20037;-86
2021/11/10 12:39:42;;;;;;;28.38;13.60;;;;;;;;;;5040417;28;20084;-85
2021/11/10 12:42:16;;;;;;;71.00;43.30;;;;;;;;;;5046444;28;20107;-83
2021/11/10 12:44:47;;;;;;;35.05;16.45;;;;;;;;;;5036699;28;20557;-81
2021/11/10 12:47:14;;;;;;;44.85;26.13;;;;;;;;;;5048368;28;20124;-81
2021/11/10 12:49:41;;;;;;;30.35;15.65;;;;;;;;;;5041049;28;20040;-91
2021/11/10 12:52:10;;;;;;;29.23;13.98;;;;;;;;;;5036727;28;20045;-88
2021/11/10 12:54:36;;;;;;;28.27;14.45;;;;;;;;;;5049124;28;20111;-89
2021/11/10 12:57:04;;;;;;;30.77;13.35;;;;;;;;;;5030697;28;20061;-88
2021/11/10 12:59:39;;;;;;;30.13;14.00;;;;;;;;;;5021439;28;20099;-88
2021/11/10 13:02:16;;;;;;;29.92;14.23;;;;;;;;;;5034398;28;20201;-86
2021/11/10 13:04:49;;;;;;;27.58;13.55;;;;;;;;;;5020409;28;20072;-88
2021/11/10 13:07:32;;;;;;;27.25;13.52;;;;;;;;;;5033367;28;20396;-87
2021/11/10 13:10:04;;;;;;;34.45;15.25;;;;;;;;;;5019144;28;20500;-87
2021/11/10 13:12:31;;;;;;;28.25;13.70;;;;;;;;;;5033868;28;20045;-87
2021/11/10 13:14:58;;;;;;;29.23;14.23;;;;;;;;;;5039382;28;20132;-88
2021/11/10 13:17:32;;;;;;;30.85;14.82;;;;;;;;;;5017403;28;20446;-88
2021/11/10 13:20:05;;;;;;;36.38;14.90;;;;;;;;;;5016647;28;20053;-88
2021/11/10 13:22:32;;;;;;;29.77;16.42;;;;;;;;;;5033691;28;20049;-86
2021/11/10 13:25:05;;;;;;;33.63;15.23;;;;;;;;;;5027301;28;20048;-90
2021/11/10 13:27:39;;;;;;;30.10;14.45;;;;;;;;;;5046018;28;20402;-84
2021/11/10 13:30:06;;;;;;;;;;;;;;;;;;5031190;28;20144;-83
2021/11/10 13:32:32;;;;;;;32.20;15.23;;;;;;;;;;5032629;28;19917;-84
2021/11/10 13:34:59;;;;;;;36.08;15.23;;;;;;;;;;5033650;28;20046;-83
2021/11/10 13:37:27;;;;;;;29.85;14.30;;;;;;;;;;5034058;28;20047;-84
2021/11/10 13:40:00;;;;;;;31.40;14.50;;;;;;;;;;5034426;28;20068;-84
2021/11/10 13:42:27;;;;;;;31.88;14.48;;;;;;;;;;5032815;28;20072;-84
2021/11/10 13:45:06;;;;;;;35.65;14.88;;;;;;;;;;5016163;28;20037;-84
2021/11/10 13:47:32;;;;;;;33.47;14.52;;;;;;;;;;5032889;28;20045;-84
2021/11/10 13:49:58;;;;;;;31.30;14.20;;;;;;;;;;5048778;28;20045;-84
2021/11/10 13:52:25;;;;;;;26.65;14.02;;;;;;;;;;5037182;28;20083;-84
2021/11/10 13:54:54;;;;;;;32.05;14.63;;;;;;;;;;5040493;28;20041;-81
2021/11/10 13:57:21;;;;;;;29.58;15.30;;;;;;;;;;5032364;28;20107;-84
2021/11/10 13:59:49;;;;;;;28.05;14.32;;;;;;;;;;5038544;28;20110;-84
2021/11/10 14:02:17;;;;;;;33.20;14.95;;;;;;;;;;5031748;28;20430;-83
2021/11/10 14:04:49;;;;;;;33.88;14.32;;;;;;;;;;5032627;28;20083;-84
2021/11/10 14:07:16;;;;;;;30.88;14.88;;;;;;;;;;5015498;28;20144;-84
2021/11/10 14:09:51;;;;;;;31.05;14.48;;;;;;;;;;5036915;28;20052;-84
2021/11/10 14:12:31;;;;;;;27.02;14.38;;;;;;;;;;5033324;28;20544;-84
2021/11/10 14:15:06;;;;;;;29.00;14.52;;;;;;;;;;5031806;28;20088;-84
2021/11/10 14:17:33;;;;;;;27.27;15.73;;;;;;;;;;5031934;28;20534;-84
2021/11/10 14:20:18;;;;;;;38.15;15.32;;;;;;;;;;5018030;28;20043;-82
2021/11/10 14:22:46;;;;;;;25.58;15.43;;;;;;;;;;5048866;28;20060;-84